• Join FlightAware (Why Join?)
  • Login
  • US Flag 
Rudolph Flight #1: Scheduled 
10:09PM EST


 

Airport Tracker/Info


-or-


 

Live Flight TrackerFlight Track Log ✈ SWA3317 ✈ 30-Jun-2013 ✈ KLAS - KPDX

Flight Track Log - Related Links

Times and Time Zones

All times are in EDT time to prevent confusion due to time zone crossing. See the SWA3317 flight status page for this flight to view local times or setup timezone preferences in your user account.

Time Position Orientation Groundspeed Altitude Reporting Facility
EDT Latitude Longitude Course Direction KTS MPH feet Rate Location/Type
10:18AM 36.0772 -115.1039 91° East 176 203 3,400  Level Los Angeles Center
10:20AM 36.0764 -115.0169 91° East 207 238 5,000 1,500 Climbing Los Angeles Center
10:21AM 36.0325 -114.9486 128° Southeast 284 327 7,000 2,460 Climbing Los Angeles Center
10:22AM 35.9592 -115.0181 217° Southwest 300 345 10,600 2,520 Climbing Los Angeles Center
10:23AM 35.9553 -115.1222 267° West 331 381 12,400 2,280 Climbing Los Angeles Center
10:24AM 35.9444 -115.2492 264° West 359 413 15,300 2,940 Climbing Los Angeles Center
10:25AM 35.9361 -115.3806 266° West 376 433 18,500 2,820 Climbing Los Angeles Center
10:26AM 35.9558 -115.5119 281° West 395 455 21,200 2,580 Climbing Los Angeles Center
10:27AM 36.0172 -115.6336 302° West 413 475 23,900 2,400 Climbing Los Angeles Center
10:28AM 36.0797 -115.7578 302° West 418 481 26,200 2,160 Climbing Los Angeles Center
10:29AM 36.1511 -115.9028 301° West 432 497 28,400 1,800 Climbing Los Angeles Center
10:30AM 36.2169 -116.0336 302° West 444 511 30,000 1,560 Climbing Los Angeles Center
10:31AM 36.2850 -116.1711 302° West 462 532 31,600 1,800 Climbing Los Angeles Center
10:32AM 36.3506 -116.3033 302° West 469 540 33,700 2,040 Climbing Los Angeles Center
10:33AM 36.4156 -116.4375 301° West 459 528 35,800 1,740 Climbing Los Angeles Center
10:35AM 36.5464 -116.7056 301° West 441 507 39,100 1,320 Climbing Los Angeles Center
10:36AM 36.6381 -116.8014 320° Northwest 437 503 40,000 420 Climbing Los Angeles Center
10:37AM 36.7569 -116.8914 329° Northwest 444 511 40,000  Level Los Angeles Center
10:38AM 36.8483 -116.9622 328° Northwest 442 509 40,000  Level Los Angeles Center
10:39AM 36.9733 -117.0606 328° Northwest 441 507 40,000  Level Los Angeles Center
10:40AM 37.0789 -117.1361 330° Northwest 437 503 40,000  Level Los Angeles Center
10:41AM 37.1853 -117.2100 331° Northwest 437 503 40,000  Level Los Angeles Center
10:42AM 37.2925 -117.2861 331° Northwest 439 505 40,000  Level Los Angeles Center
10:43AM 37.3994 -117.3619 331° Northwest 439 505 40,000  Level Los Angeles Center
10:44AM 37.5086 -117.4392 331° Northwest 444 511 40,000  Level Los Angeles Center
10:45AM 37.6172 -117.5161 331° Northwest 445 512 40,000  Level Los Angeles Center
10:46AM 37.7261 -117.5942 330° Northwest 447 514 40,000  Level Los Angeles Center
10:47AM 37.8353 -117.6722 331° Northwest 447 514 40,000  Level Los Angeles Center
10:49AM 37.9856 -117.7817 330° Northwest 444 511 40,000  Level Oakland Center
10:50AM 38.0933 -117.8583 331° Northwest 441 507 40,000  Level Oakland Center
10:51AM 38.1997 -117.9369 330° Northwest 441 507 40,000  Level Oakland Center
10:52AM 38.3061 -118.0142 330° Northwest 438 504 40,000  Level Oakland Center
10:53AM 38.4125 -118.0911 330° Northwest 438 504 40,000  Level Oakland Center
10:54AM 38.5197 -118.1703 330° Northwest 439 505 40,000  Level Oakland Center
10:55AM 38.6253 -118.2478 330° Northwest 438 504 40,000  Level Oakland Center
10:56AM 38.7314 -118.3283 329° Northwest 442 509 40,000  Level Oakland Center
10:57AM 38.8375 -118.4069 330° Northwest 441 507 40,000  Level Oakland Center
10:58AM 38.9442 -118.4856 330° Northwest 440 506 40,000  Level Oakland Center
10:59AM 39.0514 -118.5656 330° Northwest 443 510 40,000  Level Oakland Center
11:00AM 39.1786 -118.6628 329° Northwest 442 509 40,000  Level Oakland Center
11:02AM 39.3922 -118.8233 330° Northwest 447 514 40,000  Level Oakland Center
11:03AM 39.4878 -118.8964 329° Northwest 452 520 40,000  Level Oakland Center
11:04AM 39.5953 -118.9778 330° Northwest 445 512 40,000  Level Oakland Center
11:05AM 39.7008 -119.0597 329° Northwest 441 507 40,000  Level Oakland Center
11:06AM 39.8289 -119.1572 330° Northwest 444 511 40,000  Level Oakland Center
11:07AM 39.9347 -119.2397 329° Northwest 444 511 40,000  Level Oakland Center
11:08AM 40.0400 -119.3206 330° Northwest 438 504 40,000  Level Oakland Center
11:09AM 40.1456 -119.4019 329° Northwest 439 505 40,000  Level Oakland Center
11:10AM 40.2503 -119.4847 329° Northwest 439 505 40,000  Level Oakland Center
11:11AM 40.3561 -119.5681 329° Northwest 443 510 40,000  Level Oakland Center
11:12AM 40.4608 -119.6497 329° Northwest 439 505 40,000  Level Oakland Center
11:13AM 40.5592 -119.7269 329° Northwest 438 504 40,000  Level Oakland Center
11:14AM 40.6650 -119.8092 329° Northwest 443 510 40,000  Level Oakland Center
11:15AM 40.7683 -119.8956 328° Northwest 442 509 40,000  Level Oakland Center
11:16AM 40.8944 -119.9956 329° Northwest 443 510 40,000  Level Oakland Center
11:17AM 41.0000 -120.0797 329° Northwest 445 512 40,000  Level Oakland Center
11:18AM 41.1058 -120.1639 329° Northwest 444 511 40,000  Level Oakland Center
11:19AM 41.2111 -120.2511 328° Northwest 446 513 40,000  Level Oakland Center
11:20AM 41.3169 -120.3344 329° Northwest 444 511 40,000  Level Oakland Center
11:21AM 41.4219 -120.4206 328° Northwest 444 511 40,000  Level Oakland Center
11:22AM 41.5283 -120.5044 329° Northwest 445 512 40,000  Level Oakland Center
11:24AM 41.6758 -120.6222 329° Northwest 440 506 40,000  Level Seattle Center
11:25AM 41.7764 -120.7097 327° Northwest 435 501 40,000  Level Seattle Center
11:26AM 41.8819 -120.7939 329° Northwest 442 509 40,000  Level Seattle Center
11:27AM 42.0086 -120.8986 328° Northwest 447 514 40,000  Level Seattle Center
11:28AM 42.1133 -120.9864 328° Northwest 446 513 40,000  Level Seattle Center
11:29AM 42.2186 -121.0736 328° Northwest 448 516 40,000  Level Seattle Center
11:30AM 42.3233 -121.1622 328° Northwest 449 517 40,000  Level Seattle Center
11:31AM 42.4281 -121.2517 328° Northwest 449 517 40,000  Level Seattle Center
11:32AM 42.5322 -121.3394 328° Northwest 446 513 40,000  Level Seattle Center
11:33AM 42.6358 -121.4275 328° Northwest 442 509 40,000  Level Seattle Center
11:34AM 42.7389 -121.5150 328° Northwest 438 504 40,000  Level Seattle Center
11:35AM 42.8411 -121.6022 328° Northwest 436 502 40,000  Level Seattle Center
11:36AM 42.9633 -121.7064 328° Northwest 434 499 40,000  Level Seattle Center
11:37AM 43.0642 -121.7975 327° Northwest 436 502 40,000  Level Seattle Center
11:38AM 43.1644 -121.8811 329° Northwest 424 488 40,000  Level Seattle Center
11:39AM 43.2664 -121.9692 328° Northwest 431 496 40,000  Level Seattle Center
11:40AM 43.3781 -122.0661 328° Northwest 439 505 40,000  Level Seattle Center
11:41AM 43.4806 -122.1564 327° Northwest 437 503 40,000 -840 Level Seattle Center
11:42AM 43.5842 -122.2469 328° Northwest 437 503 38,300 -2,220 Descending Seattle Center
11:43AM 43.6892 -122.3394 328° Northwest 445 512 35,600 -2,460 Descending Seattle Center
11:44AM 43.7939 -122.4339 327° Northwest 449 517 33,400 -2,220 Descending Seattle Center
11:45AM 43.8983 -122.5253 328° Northwest 443 510 31,200 -2,100 Descending Seattle Center
11:46AM 43.9969 -122.6142 327° Northwest 425 489 29,200 -1,920 Descending Seattle Center
11:47AM 44.0917 -122.6997 327° Northwest 411 473 27,300 -1,920 Descending Seattle Center
11:48AM 44.1947 -122.7472 342° North 402 463 25,400 -1,920 Descending Seattle Center
11:49AM 44.3094 -122.7367 North 413 475 23,400 -1,920 Descending Seattle Center
11:50AM 44.4233 -122.7261 North 404 465 21,500 -1,980 Descending Seattle Center
11:52AM 44.5581 -122.7000 North  Level FlightAware Approximate
11:52AM 44.6619 -122.7025 North 387 445 17,400  Level Seattle Center
11:53AM 44.7639 -122.6922 North 377 434 15,500 -1,740 Descending Seattle Center
11:54AM 44.8631 -122.6825 North 364 419 13,900 -1,680 Descending Seattle Center
11:55AM 44.9592 -122.6731 North 353 406 12,200 -1,500 Descending Seattle Center
11:56AM 45.0522 -122.6644 North 342 394 10,900 -1,380 Descending Seattle Center
11:57AM 45.1411 -122.6544 North 334 384 9,400 -1,620 Descending Seattle Center
11:58AM 45.2114 -122.5936 31° Northeast 308 354 7,700 -1,680 Descending Seattle Center
11:59AM 45.2797 -122.5331 32° Northeast 296 341 6,000 -1,740 Descending Seattle Center
12:00PM 45.3472 -122.4756 31° Northeast 290 334 4,200 -1,320 Descending Seattle Center
12:01PM 45.4167 -122.4178 30° Northeast 262 302 3,500 -840 Descending Seattle Center
12:02PM 45.4744 -122.3817 24° Northeast 206 237 2,600 -540 Descending Seattle Center
12:03PM 45.5169 -122.4197 328° Northwest 180 207 2,500 -480 Descending Seattle Center
12:05PM 45.5419 -122.4897 297° West 183 211 1,600 -840 Descending Seattle Center
12:06PM 45.5633 -122.5386 302° West 179 206 800 -600 Descending Seattle Center
12:07PM 45.5822 -122.5867 299° West 171 197 400 -420 Descending Seattle Center